sensor_id;sensor_type;location;lat;lon;timestamp;P1;durP1;ratioP1;P2;durP2;ratioP2
7821;SDS011;3956;50.558;9.678;2023-05-09T00:00:44;8.73;;;7.70;;
7821;SDS011;3956;50.558;9.678;2023-05-09T00:03:12;11.90;;;7.57;;
7821;SDS011;3956;50.558;9.678;2023-05-09T00:05:42;11.57;;;8.03;;
7821;SDS011;3956;50.558;9.678;2023-05-09T00:08:11;11.03;;;8.43;;
7821;SDS011;3956;50.558;9.678;2023-05-09T00:10:39;9.43;;;7.60;;
7821;SDS011;3956;50.558;9.678;2023-05-09T00:13:07;13.17;;;8.57;;
7821;SDS011;3956;50.558;9.678;2023-05-09T00:15:35;10.73;;;8.63;;
7821;SDS011;3956;50.558;9.678;2023-05-09T00:18:04;9.50;;;7.53;;
7821;SDS011;3956;50.558;9.678;2023-05-09T00:20:32;15.23;;;7.83;;
7821;SDS011;3956;50.558;9.678;2023-05-09T00:23:03;9.30;;;8.30;;
7821;SDS011;3956;50.558;9.678;2023-05-09T00:25:33;10.40;;;8.33;;
7821;SDS011;3956;50.558;9.678;2023-05-09T00:28:18;8.70;;;7.80;;
7821;SDS011;3956;50.558;9.678;2023-05-09T00:30:46;9.50;;;8.43;;
7821;SDS011;3956;50.558;9.678;2023-05-09T00:33:15;9.07;;;8.10;;
7821;SDS011;3956;50.558;9.678;2023-05-09T00:35:44;10.13;;;8.60;;
7821;SDS011;3956;50.558;9.678;2023-05-09T00:38:13;9.97;;;7.47;;
7821;SDS011;3956;50.558;9.678;2023-05-09T00:40:43;7.93;;;7.13;;
7821;SDS011;3956;50.558;9.678;2023-05-09T00:43:12;8.60;;;7.20;;
7821;SDS011;3956;50.558;9.678;2023-05-09T00:45:42;11.53;;;7.87;;
7821;SDS011;3956;50.558;9.678;2023-05-09T00:48:13;9.07;;;7.90;;
7821;SDS011;3956;50.558;9.678;2023-05-09T00:50:42;10.13;;;7.97;;
7821;SDS011;3956;50.558;9.678;2023-05-09T00:53:13;8.37;;;7.47;;
7821;SDS011;3956;50.558;9.678;2023-05-09T00:55:43;8.53;;;7.63;;
7821;SDS011;3956;50.558;9.678;2023-05-09T00:58:11;10.27;;;8.00;;
7821;SDS011;3956;50.558;9.678;2023-05-09T01:00:40;9.13;;;7.70;;
7821;SDS011;3956;50.558;9.678;2023-05-09T01:03:08;8.40;;;7.57;;
7821;SDS011;3956;50.558;9.678;2023-05-09T01:05:39;9.60;;;7.30;;
7821;SDS011;3956;50.558;9.678;2023-05-09T01:08:26;11.50;;;8.30;;
7821;SDS011;3956;50.558;9.678;2023-05-09T01:11:08;9.60;;;7.73;;
7821;SDS011;3956;50.558;9.678;2023-05-09T01:13:42;9.57;;;7.53;;
7821;SDS011;3956;50.558;9.678;2023-05-09T01:16:18;9.30;;;7.23;;
7821;SDS011;3956;50.558;9.678;2023-05-09T01:18:58;8.63;;;7.57;;
7821;SDS011;3956;50.558;9.678;2023-05-09T01:21:35;8.43;;;7.53;;
7821;SDS011;3956;50.558;9.678;2023-05-09T01:24:23;9.43;;;7.57;;
7821;SDS011;3956;50.558;9.678;2023-05-09T01:29:54;10.07;;;7.37;;
7821;SDS011;3956;50.558;9.678;2023-05-09T01:32:24;8.53;;;7.27;;
7821;SDS011;3956;50.558;9.678;2023-05-09T01:34:59;9.90;;;7.27;;
7821;SDS011;3956;50.558;9.678;2023-05-09T01:37:30;9.43;;;7.43;;
7821;SDS011;3956;50.558;9.678;2023-05-09T01:40:04;8.13;;;6.83;;
7821;SDS011;3956;50.558;9.678;2023-05-09T01:42:37;8.43;;;7.37;;
7821;SDS011;3956;50.558;9.678;2023-05-09T01:45:10;8.10;;;7.20;;
7821;SDS011;3956;50.558;9.678;2023-05-09T01:47:40;7.80;;;6.97;;
7821;SDS011;3956;50.558;9.678;2023-05-09T01:50:11;9.77;;;6.97;;
7821;SDS011;3956;50.558;9.678;2023-05-09T01:52:43;10.07;;;7.50;;
7821;SDS011;3956;50.558;9.678;2023-05-09T01:55:15;8.23;;;6.90;;
7821;SDS011;3956;50.558;9.678;2023-05-09T01:57:48;11.57;;;6.90;;
7821;SDS011;3956;50.558;9.678;2023-05-09T02:00:20;8.30;;;7.10;;
7821;SDS011;3956;50.558;9.678;2023-05-09T02:02:50;7.57;;;6.53;;
7821;SDS011;3956;50.558;9.678;2023-05-09T02:05:19;7.67;;;6.57;;
7821;SDS011;3956;50.558;9.678;2023-05-09T02:07:49;9.43;;;6.30;;
7821;SDS011;3956;50.558;9.678;2023-05-09T02:10:19;8.60;;;6.43;;
7821;SDS011;3956;50.558;9.678;2023-05-09T02:12:59;9.97;;;6.27;;
7821;SDS011;3956;50.558;9.678;2023-05-09T02:15:28;6.57;;;5.50;;
7821;SDS011;3956;50.558;9.678;2023-05-09T02:17:58;7.07;;;6.37;;
7821;SDS011;3956;50.558;9.678;2023-05-09T02:20:26;9.47;;;6.80;;
7821;SDS011;3956;50.558;9.678;2023-05-09T02:22:55;9.83;;;7.20;;
7821;SDS011;3956;50.558;9.678;2023-05-09T02:25:24;8.53;;;7.40;;
7821;SDS011;3956;50.558;9.678;2023-05-09T02:27:52;8.03;;;6.93;;
7821;SDS011;3956;50.558;9.678;2023-05-09T02:30:23;8.57;;;7.30;;
7821;SDS011;3956;50.558;9.678;2023-05-09T02:32:58;8.27;;;7.40;;
7821;SDS011;3956;50.558;9.678;2023-05-09T02:35:31;10.37;;;7.83;;
7821;SDS011;3956;50.558;9.678;2023-05-09T02:38:03;11.83;;;7.13;;
7821;SDS011;3956;50.558;9.678;2023-05-09T02:40:33;9.10;;;7.87;;
7821;SDS011;3956;50.558;9.678;2023-05-09T02:43:03;9.53;;;7.00;;
7821;SDS011;3956;50.558;9.678;2023-05-09T02:45:31;8.03;;;6.97;;
7821;SDS011;3956;50.558;9.678;2023-05-09T02:48:02;7.93;;;7.10;;
7821;SDS011;3956;50.558;9.678;2023-05-09T02:50:36;9.17;;;7.27;;
7821;SDS011;3956;50.558;9.678;2023-05-09T02:53:04;10.07;;;8.17;;
7821;SDS011;3956;50.558;9.678;2023-05-09T02:55:34;9.13;;;8.23;;
7821;SDS011;3956;50.558;9.678;2023-05-09T02:58:03;9.30;;;8.40;;
7821;SDS011;3956;50.558;9.678;2023-05-09T03:00:40;9.27;;;8.27;;
7821;SDS011;3956;50.558;9.678;2023-05-09T03:03:17;12.13;;;8.90;;
7821;SDS011;3956;50.558;9.678;2023-05-09T03:05:50;12.30;;;8.80;;
7821;SDS011;3956;50.558;9.678;2023-05-09T03:08:20;13.77;;;9.27;;
7821;SDS011;3956;50.558;9.678;2023-05-09T03:10:52;10.70;;;8.90;;
7821;SDS011;3956;50.558;9.678;2023-05-09T03:13:24;9.93;;;8.90;;
7821;SDS011;3956;50.558;9.678;2023-05-09T03:15:55;9.50;;;8.03;;
7821;SDS011;3956;50.558;9.678;2023-05-09T03:18:30;9.43;;;8.33;;
7821;SDS011;3956;50.558;9.678;2023-05-09T03:21:00;11.73;;;8.60;;
7821;SDS011;3956;50.558;9.678;2023-05-09T03:23:29;13.13;;;8.30;;
7821;SDS011;3956;50.558;9.678;2023-05-09T03:26:01;9.43;;;8.13;;
7821;SDS011;3956;50.558;9.678;2023-05-09T03:28:30;9.77;;;7.87;;
7821;SDS011;3956;50.558;9.678;2023-05-09T03:31:04;12.80;;;9.10;;
7821;SDS011;3956;50.558;9.678;2023-05-09T03:33:34;13.83;;;8.80;;
7821;SDS011;3956;50.558;9.678;2023-05-09T03:36:04;9.10;;;8.20;;
7821;SDS011;3956;50.558;9.678;2023-05-09T03:38:33;9.93;;;8.63;;
7821;SDS011;3956;50.558;9.678;2023-05-09T03:41:03;12.07;;;9.90;;
7821;SDS011;3956;50.558;9.678;2023-05-09T03:43:32;8.50;;;7.10;;
7821;SDS011;3956;50.558;9.678;2023-05-09T03:46:02;8.93;;;7.73;;
7821;SDS011;3956;50.558;9.678;2023-05-09T03:48:30;8.87;;;7.20;;
7821;SDS011;3956;50.558;9.678;2023-05-09T03:51:00;8.40;;;7.50;;
7821;SDS011;3956;50.558;9.678;2023-05-09T03:53:30;10.30;;;7.13;;
7821;SDS011;3956;50.558;9.678;2023-05-09T03:56:00;9.33;;;7.03;;
7821;SDS011;3956;50.558;9.678;2023-05-09T03:58:28;12.00;;;7.17;;
7821;SDS011;3956;50.558;9.678;2023-05-09T04:00:57;9.50;;;7.57;;
7821;SDS011;3956;50.558;9.678;2023-05-09T04:03:25;11.30;;;6.80;;
7821;SDS011;3956;50.558;9.678;2023-05-09T04:05:55;8.40;;;7.27;;
7821;SDS011;3956;50.558;9.678;2023-05-09T04:08:26;8.63;;;7.07;;
7821;SDS011;3956;50.558;9.678;2023-05-09T04:10:55;7.33;;;6.63;;
7821;SDS011;3956;50.558;9.678;2023-05-09T04:13:23;8.77;;;7.23;;
7821;SDS011;3956;50.558;9.678;2023-05-09T04:15:53;11.47;;;7.57;;
7821;SDS011;3956;50.558;9.678;2023-05-09T04:18:22;10.47;;;6.57;;
7821;SDS011;3956;50.558;9.678;2023-05-09T04:20:51;8.23;;;6.47;;
7821;SDS011;3956;50.558;9.678;2023-05-09T04:23:22;7.80;;;6.30;;
7821;SDS011;3956;50.558;9.678;2023-05-09T04:25:51;9.00;;;7.10;;
7821;SDS011;3956;50.558;9.678;2023-05-09T04:28:21;10.03;;;7.70;;
7821;SDS011;3956;50.558;9.678;2023-05-09T04:30:52;9.50;;;7.13;;
7821;SDS011;3956;50.558;9.678;2023-05-09T04:33:20;8.27;;;6.67;;
7821;SDS011;3956;50.558;9.678;2023-05-09T04:35:51;10.37;;;7.03;;
7821;SDS011;3956;50.558;9.678;2023-05-09T04:38:22;10.13;;;7.37;;
7821;SDS011;3956;50.558;9.678;2023-05-09T04:40:57;7.40;;;6.70;;
7821;SDS011;3956;50.558;9.678;2023-05-09T04:43:27;7.93;;;7.10;;
7821;SDS011;3956;50.558;9.678;2023-05-09T04:45:58;9.77;;;7.17;;
7821;SDS011;3956;50.558;9.678;2023-05-09T04:48:30;14.37;;;8.13;;
7821;SDS011;3956;50.558;9.678;2023-05-09T04:51:03;10.27;;;6.70;;
7821;SDS011;3956;50.558;9.678;2023-05-09T04:54:13;11.47;;;7.03;;
7821;SDS011;3956;50.558;9.678;2023-05-09T04:56:45;9.70;;;7.10;;
7821;SDS011;3956;50.558;9.678;2023-05-09T04:59:16;9.50;;;7.30;;
7821;SDS011;3956;50.558;9.678;2023-05-09T05:01:45;8.30;;;5.60;;
7821;SDS011;3956;50.558;9.678;2023-05-09T05:04:14;8.90;;;5.73;;
7821;SDS011;3956;50.558;9.678;2023-05-09T05:06:44;10.70;;;6.67;;
7821;SDS011;3956;50.558;9.678;2023-05-09T05:09:13;5.83;;;5.23;;
7821;SDS011;3956;50.558;9.678;2023-05-09T05:11:50;7.40;;;5.93;;
7821;SDS011;3956;50.558;9.678;2023-05-09T05:14:29;5.83;;;5.23;;
7821;SDS011;3956;50.558;9.678;2023-05-09T05:16:59;7.07;;;5.17;;
7821;SDS011;3956;50.558;9.678;2023-05-09T05:19:28;7.30;;;5.67;;
7821;SDS011;3956;50.558;9.678;2023-05-09T05:22:00;6.43;;;5.70;;
7821;SDS011;3956;50.558;9.678;2023-05-09T05:24:47;6.10;;;5.50;;
7821;SDS011;3956;50.558;9.678;2023-05-09T05:27:20;6.60;;;5.90;;
7821;SDS011;3956;50.558;9.678;2023-05-09T05:29:51;10.67;;;7.03;;
7821;SDS011;3956;50.558;9.678;2023-05-09T05:32:29;9.20;;;7.17;;
7821;SDS011;3956;50.558;9.678;2023-05-09T05:34:59;12.93;;;7.10;;
7821;SDS011;3956;50.558;9.678;2023-05-09T05:37:29;12.30;;;7.90;;
7821;SDS011;3956;50.558;9.678;2023-05-09T05:39:59;10.83;;;7.47;;
7821;SDS011;3956;50.558;9.678;2023-05-09T05:42:39;10.00;;;7.30;;
7821;SDS011;3956;50.558;9.678;2023-05-09T05:45:52;13.13;;;7.50;;
7821;SDS011;3956;50.558;9.678;2023-05-09T05:48:35;17.60;;;7.33;;
7821;SDS011;3956;50.558;9.678;2023-05-09T05:51:17;19.90;;;11.77;;
7821;SDS011;3956;50.558;9.678;2023-05-09T05:53:48;11.87;;;8.50;;
7821;SDS011;3956;50.558;9.678;2023-05-09T05:56:18;12.50;;;7.77;;
7821;SDS011;3956;50.558;9.678;2023-05-09T05:58:51;9.57;;;7.90;;
7821;SDS011;3956;50.558;9.678;2023-05-09T06:01:23;13.87;;;8.30;;
7821;SDS011;3956;50.558;9.678;2023-05-09T06:03:51;13.23;;;8.10;;
7821;SDS011;3956;50.558;9.678;2023-05-09T06:06:21;10.33;;;8.13;;
7821;SDS011;3956;50.558;9.678;2023-05-09T06:08:53;14.53;;;10.50;;
7821;SDS011;3956;50.558;9.678;2023-05-09T06:11:22;15.10;;;8.37;;
7821;SDS011;3956;50.558;9.678;2023-05-09T06:13:54;12.70;;;9.00;;
7821;SDS011;3956;50.558;9.678;2023-05-09T06:16:26;13.63;;;9.00;;
7821;SDS011;3956;50.558;9.678;2023-05-09T06:19:05;10.80;;;8.73;;
7821;SDS011;3956;50.558;9.678;2023-05-09T06:21:33;8.30;;;6.73;;
7821;SDS011;3956;50.558;9.678;2023-05-09T06:24:07;8.40;;;6.70;;
7821;SDS011;3956;50.558;9.678;2023-05-09T06:27:14;7.57;;;6.43;;
7821;SDS011;3956;50.558;9.678;2023-05-09T06:29:44;10.47;;;7.50;;
7821;SDS011;3956;50.558;9.678;2023-05-09T06:32:12;8.17;;;7.23;;
7821;SDS011;3956;50.558;9.678;2023-05-09T06:34:43;7.57;;;6.23;;
7821;SDS011;3956;50.558;9.678;2023-05-09T06:37:13;10.07;;;6.73;;
7821;SDS011;3956;50.558;9.678;2023-05-09T06:39:49;8.37;;;6.53;;
7821;SDS011;3956;50.558;9.678;2023-05-09T06:42:18;7.57;;;6.60;;
7821;SDS011;3956;50.558;9.678;2023-05-09T06:44:49;7.13;;;6.43;;
7821;SDS011;3956;50.558;9.678;2023-05-09T06:47:19;9.53;;;7.03;;
7821;SDS011;3956;50.558;9.678;2023-05-09T06:49:59;11.87;;;7.63;;
7821;SDS011;3956;50.558;9.678;2023-05-09T06:52:27;10.87;;;6.50;;
7821;SDS011;3956;50.558;9.678;2023-05-09T06:54:56;10.37;;;6.70;;
7821;SDS011;3956;50.558;9.678;2023-05-09T06:57:25;8.43;;;6.90;;
7821;SDS011;3956;50.558;9.678;2023-05-09T07:00:02;10.77;;;7.00;;
7821;SDS011;3956;50.558;9.678;2023-05-09T07:03:14;8.50;;;6.67;;
7821;SDS011;3956;50.558;9.678;2023-05-09T07:05:43;8.77;;;7.43;;
7821;SDS011;3956;50.558;9.678;2023-05-09T07:08:11;10.73;;;7.70;;
7821;SDS011;3956;50.558;9.678;2023-05-09T07:10:42;15.17;;;11.17;;
7821;SDS011;3956;50.558;9.678;2023-05-09T07:13:16;9.13;;;8.13;;
7821;SDS011;3956;50.558;9.678;2023-05-09T07:16:05;11.37;;;8.53;;
7821;SDS011;3956;50.558;9.678;2023-05-09T07:18:39;11.07;;;8.50;;
7821;SDS011;3956;50.558;9.678;2023-05-09T07:21:26;9.13;;;8.23;;
7821;SDS011;3956;50.558;9.678;2023-05-09T07:23:56;9.17;;;8.07;;
7821;SDS011;3956;50.558;9.678;2023-05-09T07:26:25;9.50;;;8.30;;
7821;SDS011;3956;50.558;9.678;2023-05-09T07:28:58;11.03;;;8.63;;
7821;SDS011;3956;50.558;9.678;2023-05-09T07:34:57;10.13;;;8.50;;
7821;SDS011;3956;50.558;9.678;2023-05-09T07:39:53;9.57;;;8.47;;
7821;SDS011;3956;50.558;9.678;2023-05-09T07:42:23;8.60;;;7.70;;
7821;SDS011;3956;50.558;9.678;2023-05-09T07:44:52;13.77;;;8.63;;
7821;SDS011;3956;50.558;9.678;2023-05-09T07:47:20;8.73;;;7.83;;
7821;SDS011;3956;50.558;9.678;2023-05-09T07:49:50;8.40;;;7.60;;
7821;SDS011;3956;50.558;9.678;2023-05-09T07:52:19;11.60;;;7.77;;
7821;SDS011;3956;50.558;9.678;2023-05-09T07:54:49;8.73;;;7.77;;
7821;SDS011;3956;50.558;9.678;2023-05-09T07:57:21;9.00;;;8.10;;
7821;SDS011;3956;50.558;9.678;2023-05-09T07:59:50;8.47;;;7.57;;
7821;SDS011;3956;50.558;9.678;2023-05-09T08:02:20;9.40;;;7.33;;
7821;SDS011;3956;50.558;9.678;2023-05-09T08:04:48;9.70;;;7.30;;
7821;SDS011;3956;50.558;9.678;2023-05-09T08:07:26;9.67;;;7.03;;
7821;SDS011;3956;50.558;9.678;2023-05-09T08:10:05;8.70;;;6.20;;
7821;SDS011;3956;50.558;9.678;2023-05-09T08:13:17;8.03;;;7.17;;
7821;SDS011;3956;50.558;9.678;2023-05-09T08:15:49;7.40;;;6.03;;
7821;SDS011;3956;50.558;9.678;2023-05-09T08:18:20;7.70;;;6.33;;
7821;SDS011;3956;50.558;9.678;2023-05-09T08:20:57;7.80;;;7.00;;
7821;SDS011;3956;50.558;9.678;2023-05-09T08:23:49;8.13;;;6.70;;
7821;SDS011;3956;50.558;9.678;2023-05-09T08:26:19;7.60;;;6.87;;
7821;SDS011;3956;50.558;9.678;2023-05-09T08:28:50;8.87;;;6.90;;
7821;SDS011;3956;50.558;9.678;2023-05-09T08:31:23;7.23;;;6.53;;
7821;SDS011;3956;50.558;9.678;2023-05-09T08:33:53;6.73;;;5.90;;
7821;SDS011;3956;50.558;9.678;2023-05-09T08:36:23;7.17;;;6.47;;
7821;SDS011;3956;50.558;9.678;2023-05-09T08:38:55;7.13;;;5.90;;
7821;SDS011;3956;50.558;9.678;2023-05-09T08:41:36;7.30;;;5.90;;
7821;SDS011;3956;50.558;9.678;2023-05-09T08:44:42;7.67;;;5.83;;
7821;SDS011;3956;50.558;9.678;2023-05-09T08:47:13;9.60;;;6.20;;
7821;SDS011;3956;50.558;9.678;2023-05-09T08:49:52;6.73;;;5.73;;
7821;SDS011;3956;50.558;9.678;2023-05-09T08:52:29;6.10;;;5.50;;
7821;SDS011;3956;50.558;9.678;2023-05-09T08:55:13;7.97;;;5.53;;
7821;SDS011;3956;50.558;9.678;2023-05-09T08:58:22;7.47;;;6.23;;
7821;SDS011;3956;50.558;9.678;2023-05-09T09:01:06;6.70;;;5.90;;
7821;SDS011;3956;50.558;9.678;2023-05-09T09:03:39;6.53;;;5.93;;
7821;SDS011;3956;50.558;9.678;2023-05-09T09:06:16;12.83;;;6.30;;
7821;SDS011;3956;50.558;9.678;2023-05-09T09:08:49;6.80;;;6.10;;
7821;SDS011;3956;50.558;9.678;2023-05-09T09:11:30;7.20;;;6.23;;
7821;SDS011;3956;50.558;9.678;2023-05-09T09:14:01;7.10;;;6.07;;
7821;SDS011;3956;50.558;9.678;2023-05-09T09:16:46;7.33;;;6.33;;
7821;SDS011;3956;50.558;9.678;2023-05-09T09:19:57;6.63;;;5.93;;
7821;SDS011;3956;50.558;9.678;2023-05-09T09:22:33;9.83;;;6.57;;
7821;SDS011;3956;50.558;9.678;2023-05-09T09:25:03;8.30;;;6.10;;
7821;SDS011;3956;50.558;9.678;2023-05-09T09:27:37;9.20;;;6.13;;
7821;SDS011;3956;50.558;9.678;2023-05-09T09:30:08;8.43;;;6.00;;
7821;SDS011;3956;50.558;9.678;2023-05-09T09:32:46;7.70;;;6.10;;
7821;SDS011;3956;50.558;9.678;2023-05-09T09:35:15;6.83;;;6.13;;
7821;SDS011;3956;50.558;9.678;2023-05-09T09:37:49;7.63;;;6.37;;
7821;SDS011;3956;50.558;9.678;2023-05-09T09:43:43;7.20;;;6.50;;
7821;SDS011;3956;50.558;9.678;2023-05-09T09:46:12;7.23;;;6.50;;
7821;SDS011;3956;50.558;9.678;2023-05-09T09:48:47;7.60;;;6.43;;
7821;SDS011;3956;50.558;9.678;2023-05-09T09:51:29;7.83;;;6.13;;
7821;SDS011;3956;50.558;9.678;2023-05-09T09:54:07;11.50;;;7.10;;
7821;SDS011;3956;50.558;9.678;2023-05-09T09:56:45;9.27;;;6.43;;
7821;SDS011;3956;50.558;9.678;2023-05-09T10:00:01;7.60;;;6.73;;
7821;SDS011;3956;50.558;9.678;2023-05-09T10:02:46;7.03;;;6.27;;
7821;SDS011;3956;50.558;9.678;2023-05-09T10:05:47;6.77;;;6.00;;
7821;SDS011;3956;50.558;9.678;2023-05-09T10:08:35;11.77;;;6.23;;
7821;SDS011;3956;50.558;9.678;2023-05-09T10:11:18;7.60;;;6.13;;
7821;SDS011;3956;50.558;9.678;2023-05-09T10:13:50;9.97;;;6.93;;
7821;SDS011;3956;50.558;9.678;2023-05-09T10:17:00;6.87;;;5.70;;
7821;SDS011;3956;50.558;9.678;2023-05-09T10:19:30;6.37;;;5.53;;
7821;SDS011;3956;50.558;9.678;2023-05-09T10:22:04;6.47;;;5.57;;
7821;SDS011;3956;50.558;9.678;2023-05-09T10:24:39;7.50;;;5.07;;
7821;SDS011;3956;50.558;9.678;2023-05-09T10:27:35;5.50;;;4.93;;
7821;SDS011;3956;50.558;9.678;2023-05-09T10:30:17;7.67;;;5.00;;
7821;SDS011;3956;50.558;9.678;2023-05-09T10:33:03;7.03;;;4.90;;
7821;SDS011;3956;50.558;9.678;2023-05-09T10:35:39;5.27;;;4.50;;
7821;SDS011;3956;50.558;9.678;2023-05-09T10:38:09;5.20;;;4.27;;
7821;SDS011;3956;50.558;9.678;2023-05-09T10:40:40;7.03;;;4.47;;
7821;SDS011;3956;50.558;9.678;2023-05-09T10:43:09;4.67;;;3.93;;
7821;SDS011;3956;50.558;9.678;2023-05-09T10:45:54;5.23;;;4.20;;
7821;SDS011;3956;50.558;9.678;2023-05-09T10:51:39;5.10;;;3.90;;
7821;SDS011;3956;50.558;9.678;2023-05-09T10:54:35;4.03;;;3.47;;
7821;SDS011;3956;50.558;9.678;2023-05-09T10:57:07;6.23;;;3.70;;
7821;SDS011;3956;50.558;9.678;2023-05-09T11:00:14;4.43;;;3.40;;
7821;SDS011;3956;50.558;9.678;2023-05-09T11:03:25;8.10;;;3.27;;
7821;SDS011;3956;50.558;9.678;2023-05-09T11:14:09;5.70;;;2.77;;
7821;SDS011;3956;50.558;9.678;2023-05-09T11:17:03;4.70;;;3.20;;
7821;SDS011;3956;50.558;9.678;2023-05-09T11:19:49;3.70;;;3.30;;
7821;SDS011;3956;50.558;9.678;2023-05-09T11:22:26;3.50;;;2.63;;
7821;SDS011;3956;50.558;9.678;2023-05-09T11:25:02;3.53;;;2.80;;
7821;SDS011;3956;50.558;9.678;2023-05-09T11:27:40;7.17;;;3.33;;
7821;SDS011;3956;50.558;9.678;2023-05-09T11:33:06;3.47;;;2.90;;
7821;SDS011;3956;50.558;9.678;2023-05-09T11:38:44;3.67;;;2.97;;
7821;SDS011;3956;50.558;9.678;2023-05-09T11:41:13;2.90;;;2.60;;
7821;SDS011;3956;50.558;9.678;2023-05-09T11:43:45;5.20;;;3.37;;
7821;SDS011;3956;50.558;9.678;2023-05-09T11:49:05;4.70;;;2.87;;
7821;SDS011;3956;50.558;9.678;2023-05-09T11:51:36;2.97;;;2.40;;
7821;SDS011;3956;50.558;9.678;2023-05-09T11:54:11;4.43;;;2.97;;
7821;SDS011;3956;50.558;9.678;2023-05-09T11:56:44;3.10;;;2.60;;
7821;SDS011;3956;50.558;9.678;2023-05-09T11:59:17;4.90;;;2.87;;
7821;SDS011;3956;50.558;9.678;2023-05-09T12:01:50;4.43;;;2.53;;
7821;SDS011;3956;50.558;9.678;2023-05-09T12:04:21;4.10;;;2.57;;
7821;SDS011;3956;50.558;9.678;2023-05-09T12:06:52;4.80;;;2.57;;
7821;SDS011;3956;50.558;9.678;2023-05-09T12:11:54;3.50;;;2.50;;
7821;SDS011;3956;50.558;9.678;2023-05-09T12:16:51;4.50;;;2.60;;
7821;SDS011;3956;50.558;9.678;2023-05-09T12:19:20;2.93;;;2.37;;
7821;SDS011;3956;50.558;9.678;2023-05-09T12:21:54;3.33;;;2.40;;
7821;SDS011;3956;50.558;9.678;2023-05-09T12:25:01;5.53;;;3.00;;
7821;SDS011;3956;50.558;9.678;2023-05-09T12:28:02;5.70;;;2.77;;
7821;SDS011;3956;50.558;9.678;2023-05-09T12:30:32;4.40;;;2.70;;
7821;SDS011;3956;50.558;9.678;2023-05-09T12:36:12;5.07;;;2.80;;
7821;SDS011;3956;50.558;9.678;2023-05-09T12:38:55;3.37;;;3.07;;
7821;SDS011;3956;50.558;9.678;2023-05-09T12:41:25;3.33;;;2.70;;
7821;SDS011;3956;50.558;9.678;2023-05-09T12:44:09;2.73;;;2.33;;
7821;SDS011;3956;50.558;9.678;2023-05-09T12:46:56;3.90;;;2.53;;
7821;SDS011;3956;50.558;9.678;2023-05-09T12:49:29;2.93;;;2.63;;
7821;SDS011;3956;50.558;9.678;2023-05-09T12:51:58;3.90;;;3.00;;
7821;SDS011;3956;50.558;9.678;2023-05-09T12:54:38;4.90;;;2.60;;
7821;SDS011;3956;50.558;9.678;2023-05-09T12:57:59;4.57;;;2.70;;
7821;SDS011;3956;50.558;9.678;2023-05-09T13:00:49;4.87;;;2.90;;
7821;SDS011;3956;50.558;9.678;2023-05-09T13:03:21;4.97;;;2.80;;
7821;SDS011;3956;50.558;9.678;2023-05-09T13:06:05;4.40;;;2.90;;
7821;SDS011;3956;50.558;9.678;2023-05-09T13:08:55;6.07;;;2.47;;
7821;SDS011;3956;50.558;9.678;2023-05-09T13:11:30;3.30;;;2.77;;
7821;SDS011;3956;50.558;9.678;2023-05-09T13:14:04;8.13;;;3.17;;
7821;SDS011;3956;50.558;9.678;2023-05-09T13:16:46;3.23;;;2.27;;
7821;SDS011;3956;50.558;9.678;2023-05-09T13:19:16;4.77;;;2.50;;
7821;SDS011;3956;50.558;9.678;2023-05-09T13:21:55;3.43;;;2.43;;
7821;SDS011;3956;50.558;9.678;2023-05-09T13:24:37;3.70;;;3.07;;
7821;SDS011;3956;50.558;9.678;2023-05-09T13:27:08;3.80;;;2.57;;
7821;SDS011;3956;50.558;9.678;2023-05-09T13:30:15;4.23;;;2.63;;
7821;SDS011;3956;50.558;9.678;2023-05-09T13:32:48;3.87;;;2.37;;
7821;SDS011;3956;50.558;9.678;2023-05-09T13:35:18;3.40;;;2.30;;
7821;SDS011;3956;50.558;9.678;2023-05-09T13:37:49;3.27;;;2.20;;
7821;SDS011;3956;50.558;9.678;2023-05-09T13:40:18;4.27;;;2.23;;
7821;SDS011;3956;50.558;9.678;2023-05-09T13:42:47;2.60;;;2.00;;
7821;SDS011;3956;50.558;9.678;2023-05-09T13:45:19;2.70;;;2.17;;
7821;SDS011;3956;50.558;9.678;2023-05-09T13:47:48;3.00;;;2.00;;
7821;SDS011;3956;50.558;9.678;2023-05-09T13:50:17;3.23;;;2.30;;
7821;SDS011;3956;50.558;9.678;2023-05-09T13:52:45;3.50;;;2.00;;
7821;SDS011;3956;50.558;9.678;2023-05-09T13:55:16;2.97;;;2.27;;
7821;SDS011;3956;50.558;9.678;2023-05-09T13:57:45;3.30;;;2.20;;
7821;SDS011;3956;50.558;9.678;2023-05-09T14:00:16;2.77;;;2.37;;
7821;SDS011;3956;50.558;9.678;2023-05-09T14:03:18;2.73;;;2.30;;
7821;SDS011;3956;50.558;9.678;2023-05-09T14:05:58;3.53;;;2.30;;
7821;SDS011;3956;50.558;9.678;2023-05-09T14:08:28;2.57;;;2.20;;
7821;SDS011;3956;50.558;9.678;2023-05-09T14:14:27;2.20;;;1.80;;
7821;SDS011;3956;50.558;9.678;2023-05-09T14:17:11;2.83;;;2.20;;
7821;SDS011;3956;50.558;9.678;2023-05-09T14:19:41;3.30;;;2.00;;
7821;SDS011;3956;50.558;9.678;2023-05-09T14:22:09;1.83;;;1.67;;
7821;SDS011;3956;50.558;9.678;2023-05-09T14:24:41;5.07;;;2.17;;
7821;SDS011;3956;50.558;9.678;2023-05-09T14:27:23;2.63;;;2.00;;
7821;SDS011;3956;50.558;9.678;2023-05-09T14:29:51;7.17;;;3.70;;
7821;SDS011;3956;50.558;9.678;2023-05-09T14:32:24;2.50;;;2.10;;
7821;SDS011;3956;50.558;9.678;2023-05-09T14:35:06;8.43;;;1.97;;
7821;SDS011;3956;50.558;9.678;2023-05-09T14:37:38;2.30;;;1.80;;
7821;SDS011;3956;50.558;9.678;2023-05-09T14:40:43;2.20;;;1.90;;
7821;SDS011;3956;50.558;9.678;2023-05-09T14:43:19;3.50;;;2.00;;
7821;SDS011;3956;50.558;9.678;2023-05-09T14:45:47;2.77;;;1.80;;
7821;SDS011;3956;50.558;9.678;2023-05-09T14:48:16;6.50;;;2.40;;
7821;SDS011;3956;50.558;9.678;2023-05-09T14:50:48;3.00;;;2.00;;
7821;SDS011;3956;50.558;9.678;2023-05-09T14:53:30;3.30;;;2.20;;
7821;SDS011;3956;50.558;9.678;2023-05-09T14:56:13;2.90;;;1.93;;
7821;SDS011;3956;50.558;9.678;2023-05-09T14:58:45;3.60;;;2.30;;
7821;SDS011;3956;50.558;9.678;2023-05-09T15:01:16;7.00;;;2.07;;
7821;SDS011;3956;50.558;9.678;2023-05-09T15:03:48;4.63;;;2.10;;
7821;SDS011;3956;50.558;9.678;2023-05-09T15:06:43;3.67;;;1.97;;
7821;SDS011;3956;50.558;9.678;2023-05-09T15:09:59;2.30;;;1.93;;
7821;SDS011;3956;50.558;9.678;2023-05-09T15:12:47;5.23;;;1.70;;
7821;SDS011;3956;50.558;9.678;2023-05-09T15:15:19;3.70;;;2.10;;
7821;SDS011;3956;50.558;9.678;2023-05-09T15:17:48;3.73;;;1.90;;
7821;SDS011;3956;50.558;9.678;2023-05-09T15:20:19;3.07;;;2.00;;
7821;SDS011;3956;50.558;9.678;2023-05-09T15:22:52;3.17;;;1.80;;
7821;SDS011;3956;50.558;9.678;2023-05-09T15:25:55;5.10;;;2.23;;
7821;SDS011;3956;50.558;9.678;2023-05-09T15:28:35;4.80;;;2.20;;
7821;SDS011;3956;50.558;9.678;2023-05-09T15:31:50;2.00;;;1.80;;
7821;SDS011;3956;50.558;9.678;2023-05-09T15:34:18;3.87;;;2.20;;
7821;SDS011;3956;50.558;9.678;2023-05-09T15:36:49;2.47;;;2.27;;
7821;SDS011;3956;50.558;9.678;2023-05-09T15:39:21;4.30;;;2.10;;
7821;SDS011;3956;50.558;9.678;2023-05-09T15:45:40;2.83;;;2.00;;
7821;SDS011;3956;50.558;9.678;2023-05-09T15:49:28;5.20;;;2.23;;
7821;SDS011;3956;50.558;9.678;2023-05-09T15:52:51;4.20;;;2.20;;
7821;SDS011;3956;50.558;9.678;2023-05-09T15:56:49;3.67;;;1.73;;
7821;SDS011;3956;50.558;9.678;2023-05-09T15:59:56;3.83;;;2.27;;
7821;SDS011;3956;50.558;9.678;2023-05-09T16:02:53;5.13;;;2.03;;
7821;SDS011;3956;50.558;9.678;2023-05-09T16:05:25;3.90;;;2.37;;
7821;SDS011;3956;50.558;9.678;2023-05-09T16:07:53;4.13;;;2.20;;
7821;SDS011;3956;50.558;9.678;2023-05-09T16:10:30;2.63;;;2.03;;
7821;SDS011;3956;50.558;9.678;2023-05-09T16:13:18;3.07;;;2.37;;
7821;SDS011;3956;50.558;9.678;2023-05-09T16:15:50;9.47;;;2.27;;
7821;SDS011;3956;50.558;9.678;2023-05-09T16:18:20;2.20;;;1.97;;
7821;SDS011;3956;50.558;9.678;2023-05-09T16:20:50;3.87;;;2.30;;
7821;SDS011;3956;50.558;9.678;2023-05-09T16:23:26;4.03;;;2.43;;
7821;SDS011;3956;50.558;9.678;2023-05-09T16:25:55;3.70;;;2.40;;
7821;SDS011;3956;50.558;9.678;2023-05-09T16:28:25;4.20;;;2.27;;
7821;SDS011;3956;50.558;9.678;2023-05-09T16:30:56;2.70;;;2.27;;
7821;SDS011;3956;50.558;9.678;2023-05-09T16:33:25;7.33;;;2.77;;
7821;SDS011;3956;50.558;9.678;2023-05-09T16:36:00;4.30;;;2.40;;
7821;SDS011;3956;50.558;9.678;2023-05-09T16:38:47;5.27;;;2.60;;
7821;SDS011;3956;50.558;9.678;2023-05-09T16:41:31;2.57;;;2.20;;
7821;SDS011;3956;50.558;9.678;2023-05-09T16:44:03;4.30;;;2.40;;
7821;SDS011;3956;50.558;9.678;2023-05-09T16:46:32;3.00;;;2.27;;
7821;SDS011;3956;50.558;9.678;2023-05-09T16:49:05;3.37;;;2.37;;
7821;SDS011;3956;50.558;9.678;2023-05-09T16:51:44;3.83;;;2.00;;
7821;SDS011;3956;50.558;9.678;2023-05-09T16:54:13;2.93;;;2.30;;